createdAt,value
2022-12-01T00:01:12.650Z,5.61
2022-12-01T00:03:39.796Z,5.59
2022-12-01T00:06:10.327Z,5.57
2022-12-01T00:08:37.407Z,5.62
2022-12-01T00:11:08.491Z,5.63
2022-12-01T00:13:35.474Z,5.62
2022-12-01T00:16:16.369Z,5.59
2022-12-01T00:18:43.264Z,5.61
2022-12-01T00:21:17.870Z,5.61
2022-12-01T00:23:47.280Z,5.58
2022-12-01T00:26:14.531Z,5.63
2022-12-01T00:28:41.008Z,5.61
2022-12-01T00:31:09.160Z,5.60
2022-12-01T00:33:35.818Z,5.52
2022-12-01T00:36:02.659Z,5.61
2022-12-01T00:38:29.515Z,5.63
2022-12-01T00:40:56.209Z,5.65
2022-12-01T00:43:22.842Z,5.63
2022-12-01T00:45:49.379Z,5.64
2022-12-01T00:48:16.021Z,5.61
2022-12-01T00:50:43.043Z,5.63
2022-12-01T00:53:09.998Z,5.61
2022-12-01T00:55:36.495Z,5.64
2022-12-01T00:58:03.090Z,5.64
2022-12-01T01:00:29.557Z,5.61
2022-12-01T01:02:56.104Z,5.66
2022-12-01T01:05:23.338Z,5.67
2022-12-01T01:07:49.966Z,5.66
2022-12-01T01:10:16.571Z,5.65
2022-12-01T01:12:43.105Z,5.64
2022-12-01T01:15:10.072Z,5.65
2022-12-01T01:17:36.668Z,5.66
2022-12-01T01:20:06.960Z,5.69
2022-12-01T01:22:35.400Z,5.67
2022-12-01T01:25:02.014Z,5.67
2022-12-01T01:27:28.491Z,5.66
2022-12-01T01:29:54.934Z,5.66
2022-12-01T01:32:21.467Z,5.66
2022-12-01T01:34:47.970Z,5.65
2022-12-01T01:37:14.482Z,5.67
2022-12-01T01:39:40.934Z,5.59
2022-12-01T01:42:12.626Z,5.62
2022-12-01T01:44:56.314Z,5.64
2022-12-01T01:47:31.883Z,5.65
2022-12-01T01:50:06.207Z,5.64
2022-12-01T01:52:36.410Z,5.63
2022-12-01T01:55:03.482Z,5.62
2022-12-01T01:57:33.296Z,5.61
2022-12-01T02:00:27.246Z,5.62
2022-12-01T02:02:54.263Z,5.62
2022-12-01T02:05:26.426Z,5.60
2022-12-01T02:07:57.069Z,5.59
2022-12-01T02:11:24.052Z,5.57
2022-12-01T02:13:54.124Z,5.52
2022-12-01T02:16:35.189Z,5.55
2022-12-01T02:19:14.914Z,5.48
2022-12-01T02:22:15.313Z,5.51
2022-12-01T02:25:00.641Z,5.50
2022-12-01T02:27:53.669Z,5.48
2022-12-01T02:30:41.065Z,5.43
2022-12-01T02:33:53.565Z,5.48
2022-12-01T02:36:56.731Z,5.48
2022-12-01T02:39:35.670Z,5.48
2022-12-01T02:42:10.505Z,5.50
2022-12-01T02:44:44.554Z,5.43
2022-12-01T02:47:19.501Z,5.45
2022-12-01T02:49:52.723Z,5.45
2022-12-01T02:52:22.430Z,5.45
2022-12-01T02:54:49.346Z,5.41
2022-12-01T02:57:16.887Z,5.42
2022-12-01T02:59:47.598Z,5.43
2022-12-01T03:02:24.501Z,5.44
2022-12-01T03:05:34.190Z,5.44
2022-12-01T03:08:13.725Z,5.38
2022-12-01T03:10:54.717Z,5.40
2022-12-01T03:13:46.573Z,5.40
2022-12-01T03:16:33.377Z,5.40
2022-12-01T03:19:08.241Z,5.39
2022-12-01T03:21:54.911Z,5.38
2022-12-01T03:24:26.240Z,5.38
2022-12-01T03:26:57.340Z,5.37
2022-12-01T03:29:30.732Z,5.35
2022-12-01T03:32:03.249Z,5.36
2022-12-01T03:34:50.033Z,5.38
2022-12-01T03:37:26.231Z,5.34
2022-12-01T03:40:00.215Z,5.32
2022-12-01T03:42:41.862Z,5.38
2022-12-01T03:45:24.165Z,5.38
2022-12-01T03:47:51.627Z,5.35
2022-12-01T03:50:18.668Z,5.38
2022-12-01T03:53:20.132Z,5.34
2022-12-01T03:55:54.124Z,5.33
2022-12-01T03:58:27.330Z,5.34
2022-12-01T04:00:57.621Z,5.30
2022-12-01T04:03:25.910Z,5.31
2022-12-01T04:05:52.521Z,5.31
2022-12-01T04:08:19.037Z,5.29
2022-12-01T04:10:45.590Z,5.29
2022-12-01T04:13:22.073Z,5.20
2022-12-01T04:15:53.648Z,5.28
2022-12-01T04:18:20.811Z,5.29
2022-12-01T04:20:49.316Z,5.28
2022-12-01T04:23:36.313Z,5.31
2022-12-01T04:26:04.953Z,5.30
2022-12-01T04:28:31.741Z,5.31
2022-12-01T04:30:58.311Z,5.28
2022-12-01T04:33:24.919Z,5.29
2022-12-01T04:35:59.641Z,5.28
2022-12-01T04:38:30.649Z,5.26
2022-12-01T04:40:57.433Z,5.29
2022-12-01T04:43:23.869Z,5.30
2022-12-01T04:45:50.347Z,5.32
2022-12-01T04:48:17.065Z,5.32
2022-12-01T04:50:43.594Z,5.27
2022-12-01T04:53:10.067Z,5.30
2022-12-01T04:55:38.991Z,5.28
2022-12-01T04:58:05.874Z,5.24
2022-12-01T05:00:33.013Z,5.24
2022-12-01T05:03:00.493Z,5.25
2022-12-01T05:05:27.114Z,5.18
2022-12-01T05:07:53.721Z,5.23
2022-12-01T05:10:20.561Z,5.18
2022-12-01T05:12:47.289Z,5.23
2022-12-01T05:15:13.988Z,5.25
2022-12-01T05:17:40.486Z,5.23
2022-12-01T05:20:36.826Z,5.26
2022-12-01T05:23:05.991Z,5.25
2022-12-01T05:25:33.451Z,5.12
2022-12-01T05:28:00.093Z,5.25
2022-12-01T05:30:28.702Z,5.24
2022-12-01T05:32:55.653Z,5.21
2022-12-01T05:35:22.198Z,5.19
2022-12-01T05:37:48.868Z,5.12
2022-12-01T05:40:15.381Z,5.18
2022-12-01T05:42:41.888Z,5.14
2022-12-01T05:45:08.724Z,5.20
2022-12-01T05:47:35.200Z,5.15
2022-12-01T05:50:05.434Z,5.14
2022-12-01T05:52:35.146Z,5.13
2022-12-01T05:55:02.995Z,5.18
2022-12-01T05:57:29.820Z,5.19
2022-12-01T05:59:56.363Z,4.98
2022-12-01T06:02:23.251Z,5.13
2022-12-01T06:04:49.772Z,5.14
2022-12-01T06:07:16.275Z,5.16
2022-12-01T06:09:42.758Z,5.14
2022-12-01T06:12:09.196Z,5.19
2022-12-01T06:14:35.720Z,5.20
2022-12-01T06:17:02.348Z,5.19
2022-12-01T06:19:28.849Z,5.20
2022-12-01T06:21:55.327Z,5.21
2022-12-01T06:24:21.789Z,5.21
2022-12-01T06:26:48.273Z,5.20
2022-12-01T06:29:14.812Z,5.16
2022-12-01T06:31:42.159Z,5.16
2022-12-01T06:34:09.041Z,5.20
2022-12-01T06:36:35.526Z,5.20
2022-12-01T06:39:02.122Z,5.05
2022-12-01T06:41:28.595Z,5.18
2022-12-01T06:43:55.124Z,5.18
2022-12-01T06:46:21.617Z,5.18
2022-12-01T06:48:49.223Z,5.20
2022-12-01T06:51:15.740Z,5.20
2022-12-01T06:53:42.217Z,5.21
2022-12-01T06:56:08.744Z,5.20
2022-12-01T06:58:42.188Z,5.19
2022-12-01T07:01:12.582Z,5.21
2022-12-01T07:03:40.018Z,5.20
2022-12-01T07:06:06.666Z,5.19
2022-12-01T07:08:33.325Z,5.03
2022-12-01T07:11:01.760Z,5.18
2022-12-01T07:13:33.345Z,5.18
2022-12-01T07:16:01.895Z,5.18
2022-12-01T07:18:29.335Z,5.17
2022-12-01T07:21:04.522Z,5.12
2022-12-01T07:23:31.339Z,5.09
2022-12-01T07:26:06.976Z,5.09
2022-12-01T07:28:33.919Z,5.14
2022-12-01T07:31:11.942Z,5.11
2022-12-01T07:33:39.334Z,5.18
2022-12-01T07:36:06.753Z,5.13
2022-12-01T07:38:34.320Z,5.20
2022-12-01T07:41:09.644Z,5.17
2022-12-01T07:43:36.856Z,5.12
2022-12-01T07:46:23.727Z,5.17
2022-12-01T07:48:51.613Z,5.22
2022-12-01T07:51:18.970Z,5.23
2022-12-01T07:53:47.554Z,5.22
2022-12-01T07:56:14.012Z,5.23
2022-12-01T07:58:41.305Z,5.24
2022-12-01T08:01:11.824Z,5.24
2022-12-01T08:03:39.134Z,5.25
2022-12-01T08:06:06.778Z,5.24
2022-12-01T08:08:35.258Z,5.29
2022-12-01T08:11:04.667Z,5.11
2022-12-01T08:13:31.519Z,5.28
2022-12-01T08:15:58.189Z,5.26
2022-12-01T08:18:24.933Z,5.16
2022-12-01T08:20:52.001Z,5.28
2022-12-01T08:23:18.512Z,5.28
2022-12-01T08:25:45.017Z,5.26
2022-12-01T08:28:11.561Z,5.30
2022-12-01T08:30:38.048Z,5.32
2022-12-01T08:33:04.576Z,5.34
2022-12-01T08:35:31.068Z,5.36
2022-12-01T08:37:57.541Z,5.33
2022-12-01T08:40:24.204Z,5.30
2022-12-01T08:42:52.743Z,5.35
2022-12-01T08:45:19.870Z,5.37
2022-12-01T08:47:47.515Z,5.36
2022-12-01T08:50:14.222Z,5.36
2022-12-01T08:52:40.770Z,5.37
2022-12-01T08:55:08.196Z,5.37
2022-12-01T08:57:34.750Z,5.38
2022-12-01T09:00:01.347Z,5.38
2022-12-01T09:02:28.053Z,5.41
2022-12-01T09:04:55.706Z,5.42
2022-12-01T09:07:26.384Z,5.41
2022-12-01T09:09:53.447Z,5.39
2022-12-01T09:12:19.971Z,5.37
2022-12-01T09:14:48.490Z,5.44
2022-12-01T09:17:16.715Z,5.40
2022-12-01T09:19:43.865Z,5.43
2022-12-01T09:22:11.781Z,5.42
2022-12-01T09:24:38.442Z,5.33
2022-12-01T09:27:05.156Z,5.38
2022-12-01T09:29:32.433Z,5.34
2022-12-01T09:32:00.480Z,5.41
2022-12-01T09:34:28.051Z,5.41
2022-12-01T09:36:56.799Z,5.42
2022-12-01T09:39:23.541Z,5.38
2022-12-01T09:41:52.021Z,5.47
2022-12-01T09:44:40.768Z,5.45
2022-12-01T09:47:19.539Z,5.42
2022-12-01T09:49:55.409Z,5.47
2022-12-01T09:52:24.152Z,5.48
2022-12-01T09:54:52.229Z,5.45
2022-12-01T09:57:36.743Z,5.35
2022-12-01T10:00:13.321Z,5.48
2022-12-01T10:02:44.412Z,5.51
2022-12-01T10:05:16.232Z,5.48
2022-12-01T10:07:52.671Z,5.50
2022-12-01T10:10:28.658Z,5.53
2022-12-01T10:12:55.278Z,5.50
2022-12-01T10:15:39.808Z,5.58
2022-12-01T10:18:35.484Z,5.59
2022-12-01T10:21:04.954Z,5.60
2022-12-01T10:23:55.020Z,5.62
2022-12-01T10:26:28.880Z,5.64
2022-12-01T10:29:26.646Z,5.67
2022-12-01T10:31:59.140Z,5.64
2022-12-01T10:34:30.001Z,5.66
2022-12-01T10:36:56.889Z,5.67
2022-12-01T10:39:37.561Z,5.66
2022-12-01T10:42:13.893Z,5.64
2022-12-01T10:44:41.255Z,5.64
2022-12-01T10:47:34.244Z,5.64
2022-12-01T10:50:03.221Z,5.63
2022-12-01T10:52:41.525Z,5.64
2022-12-01T10:55:23.334Z,5.60
2022-12-01T10:57:50.469Z,5.56
2022-12-01T11:03:23.426Z,5.64
2022-12-01T11:05:55.594Z,5.65
2022-12-01T11:08:30.501Z,5.73
2022-12-01T11:10:57.221Z,5.68
2022-12-01T11:13:29.246Z,5.62
2022-12-01T11:15:58.749Z,5.65
2022-12-01T11:18:31.396Z,5.69
2022-12-01T11:21:15.621Z,5.69
2022-12-01T11:23:50.158Z,5.69
2022-12-01T11:26:17.681Z,5.72
2022-12-01T11:29:25.823Z,5.73
2022-12-01T11:31:53.186Z,5.76
2022-12-01T11:34:24.090Z,5.72
2022-12-01T11:36:51.739Z,5.79
2022-12-01T11:39:28.929Z,5.81
2022-12-01T11:41:57.861Z,5.79
2022-12-01T11:47:24.584Z,5.82
2022-12-01T11:50:03.430Z,5.80
2022-12-01T11:52:46.339Z,5.79
2022-12-01T11:55:12.768Z,5.79
2022-12-01T11:57:42.556Z,5.73
2022-12-01T12:01:01.481Z,5.79
2022-12-01T12:03:41.361Z,5.78
2022-12-01T12:06:38.340Z,5.79
2022-12-01T12:09:03.385Z,5.75
2022-12-01T12:11:38.893Z,5.74
2022-12-01T12:14:20.251Z,5.72
2022-12-01T12:17:11.120Z,5.69
2022-12-01T12:20:16.537Z,5.69
2022-12-01T12:22:55.413Z,5.67
2022-12-01T12:25:38.381Z,5.62
2022-12-01T12:28:31.551Z,5.59
2022-12-01T12:31:04.960Z,5.61
2022-12-01T12:33:46.626Z,5.64
2022-12-01T12:36:27.831Z,5.63
2022-12-01T12:38:57.039Z,5.63
2022-12-01T12:41:44.029Z,5.63
2022-12-01T12:44:37.493Z,5.65
2022-12-01T12:47:19.376Z,5.65
2022-12-01T12:49:52.166Z,5.65
2022-12-01T12:52:25.707Z,5.60
2022-12-01T12:55:01.547Z,5.62
2022-12-01T12:57:37.463Z,5.60
2022-12-01T13:00:04.225Z,5.62
2022-12-01T13:02:40.935Z,5.66
2022-12-01T13:05:24.874Z,5.70
2022-12-01T13:08:08.994Z,5.73
2022-12-01T13:10:58.080Z,5.74
2022-12-01T13:13:27.633Z,5.75
2022-12-01T13:15:56.737Z,5.74
2022-12-01T13:19:09.826Z,5.75
2022-12-01T13:21:42.392Z,5.77
2022-12-01T13:24:16.285Z,5.81
2022-12-01T13:27:09.972Z,5.78
2022-12-01T13:29:46.114Z,5.83
2022-12-01T13:32:43.071Z,5.85
2022-12-01T13:35:27.575Z,5.83
2022-12-01T13:38:13.968Z,5.81
2022-12-01T13:40:40.513Z,5.80
2022-12-01T13:43:17.875Z,5.83
2022-12-01T13:45:44.713Z,5.81
2022-12-01T13:48:48.684Z,5.85
2022-12-01T13:51:15.470Z,5.84
2022-12-01T13:54:26.838Z,5.85
2022-12-01T13:57:05.080Z,5.85
2022-12-01T13:59:40.443Z,5.81
2022-12-01T14:02:16.232Z,5.84
2022-12-01T14:04:42.949Z,5.73
2022-12-01T14:07:34.229Z,5.78
2022-12-01T14:10:22.126Z,5.78
2022-12-01T14:12:50.183Z,5.79
2022-12-01T14:15:32.187Z,5.80
2022-12-01T14:18:06.068Z,5.84
2022-12-01T14:20:37.410Z,5.84
2022-12-01T14:23:15.034Z,5.85
2022-12-01T14:25:43.333Z,5.76
2022-12-01T14:28:16.856Z,5.84
2022-12-01T14:30:46.104Z,5.83
2022-12-01T14:33:44.776Z,5.84
2022-12-01T14:36:21.721Z,5.78
2022-12-01T14:38:54.180Z,5.71
2022-12-01T14:41:30.987Z,5.79
2022-12-01T14:44:16.406Z,5.80
2022-12-01T14:46:49.111Z,5.76
2022-12-01T14:49:23.226Z,5.69
2022-12-01T14:51:54.558Z,5.75
2022-12-01T14:54:30.135Z,5.73
2022-12-01T14:57:05.837Z,5.74
2022-12-01T14:59:33.948Z,5.74
2022-12-01T15:02:08.989Z,5.72
2022-12-01T15:05:10.869Z,5.72
2022-12-01T15:07:43.956Z,5.66
2022-12-01T15:10:39.274Z,5.65
2022-12-01T15:13:22.333Z,5.59
2022-12-01T15:15:59.511Z,5.52
2022-12-01T15:18:35.107Z,5.49
2022-12-01T15:21:08.094Z,5.47
2022-12-01T15:23:34.674Z,5.42
2022-12-01T15:26:01.348Z,5.39
2022-12-01T15:28:33.617Z,5.36
2022-12-01T15:31:01.643Z,5.31
2022-12-01T15:33:37.276Z,5.31
2022-12-01T15:36:04.823Z,5.28
2022-12-01T15:38:34.763Z,5.25
2022-12-01T15:41:32.718Z,5.22
2022-12-01T15:43:57.566Z,5.14
2022-12-01T15:46:34.650Z,5.13
2022-12-01T15:49:29.993Z,5.07
2022-12-01T15:52:11.511Z,5.02
2022-12-01T15:54:38.969Z,4.98
2022-12-01T15:57:06.592Z,5.00
2022-12-01T15:59:39.132Z,4.98
2022-12-01T16:02:27.388Z,4.95
2022-12-01T16:05:08.885Z,4.96
2022-12-01T16:10:41.717Z,4.88
2022-12-01T16:13:36.341Z,4.93
2022-12-01T16:16:27.157Z,4.93
2022-12-01T16:18:58.061Z,4.91
2022-12-01T16:21:25.132Z,4.77
2022-12-01T16:24:03.894Z,4.92
2022-12-01T16:26:32.743Z,4.94
2022-12-01T16:28:59.423Z,4.87
2022-12-01T16:31:26.993Z,4.92
2022-12-01T16:34:13.750Z,4.96
2022-12-01T16:36:45.498Z,4.85
2022-12-01T16:39:13.938Z,4.98
2022-12-01T16:41:44.465Z,5.01
2022-12-01T16:44:27.991Z,5.02
2022-12-01T16:46:55.758Z,5.01
2022-12-01T16:49:22.563Z,5.03
2022-12-01T16:51:56.030Z,5.04
2022-12-01T16:54:23.632Z,5.05
2022-12-01T16:56:50.975Z,5.03
2022-12-01T16:59:17.504Z,5.03
2022-12-01T17:01:44.088Z,5.04
2022-12-01T17:04:10.651Z,5.02
2022-12-01T17:06:38.399Z,5.01
2022-12-01T17:09:05.329Z,5.01
2022-12-01T17:11:32.416Z,4.99
2022-12-01T17:13:59.026Z,4.94
2022-12-01T17:16:25.619Z,4.89
2022-12-01T17:18:52.228Z,4.97
2022-12-01T17:21:18.825Z,4.96
2022-12-01T17:23:45.526Z,4.98
2022-12-01T17:26:18.641Z,4.97
2022-12-01T17:28:45.216Z,4.96
2022-12-01T17:31:12.283Z,4.95
2022-12-01T17:33:39.224Z,4.97
2022-12-01T17:36:11.839Z,5.01
2022-12-01T17:38:40.353Z,4.94
2022-12-01T17:41:12.390Z,4.97
2022-12-01T17:43:39.651Z,4.83
2022-12-01T17:46:08.284Z,4.93
2022-12-01T17:48:37.074Z,4.96
2022-12-01T17:51:04.077Z,4.99
2022-12-01T17:53:30.709Z,4.97
2022-12-01T17:55:57.248Z,5.00
2022-12-01T17:58:23.909Z,4.95
2022-12-01T18:00:51.971Z,4.94
2022-12-01T18:03:19.750Z,4.91
2022-12-01T18:05:55.083Z,4.94
2022-12-01T18:08:21.825Z,4.91
2022-12-01T18:10:48.297Z,4.96
2022-12-01T18:13:14.814Z,4.95
2022-12-01T18:15:41.439Z,4.95
2022-12-01T18:18:07.966Z,4.96
2022-12-01T18:20:34.467Z,4.94
2022-12-01T18:23:00.937Z,4.94
2022-12-01T18:25:27.439Z,4.90
2022-12-01T18:27:58.308Z,4.93
2022-12-01T18:30:24.854Z,4.90
2022-12-01T18:32:51.412Z,4.91
2022-12-01T18:35:17.974Z,4.87
2022-12-01T18:37:44.443Z,4.86
2022-12-01T18:40:11.738Z,4.79
2022-12-01T18:42:38.278Z,4.79
2022-12-01T18:45:05.118Z,4.88
2022-12-01T18:47:31.684Z,4.88
2022-12-01T18:49:58.248Z,4.90
2022-12-01T18:52:24.809Z,4.89
2022-12-01T18:54:51.656Z,4.89
2022-12-01T18:57:19.027Z,4.89
2022-12-01T18:59:45.855Z,4.88
2022-12-01T19:02:12.517Z,4.90
2022-12-01T19:04:39.079Z,4.86
2022-12-01T19:07:05.567Z,4.90
2022-12-01T19:09:32.072Z,4.89
2022-12-01T19:12:00.226Z,4.87
2022-12-01T19:14:28.551Z,4.84
2022-12-01T19:16:55.658Z,4.83
2022-12-01T19:19:22.463Z,4.84
2022-12-01T19:21:50.359Z,4.85
2022-12-01T19:24:16.895Z,4.81
2022-12-01T19:26:43.403Z,4.76
2022-12-01T19:29:10.064Z,4.83
2022-12-01T19:31:36.609Z,4.77
2022-12-01T19:34:04.196Z,4.79
2022-12-01T19:36:30.901Z,4.81
2022-12-01T19:39:00.158Z,4.78
2022-12-01T19:41:27.456Z,4.80
2022-12-01T19:43:55.128Z,4.83
2022-12-01T19:46:23.852Z,4.84
2022-12-01T19:48:56.276Z,4.84
2022-12-01T19:51:29.989Z,4.80
2022-12-01T19:53:56.910Z,4.66
2022-12-01T19:56:24.676Z,4.80
2022-12-01T19:58:58.815Z,4.70
2022-12-01T20:01:26.408Z,4.77
2022-12-01T20:03:54.116Z,4.76
2022-12-01T20:06:26.594Z,4.77
2022-12-01T20:08:55.687Z,4.71
2022-12-01T20:11:22.910Z,4.71
2022-12-01T20:13:49.530Z,4.72
2022-12-01T20:16:18.674Z,4.58
2022-12-01T20:18:45.999Z,4.59
2022-12-01T20:21:17.461Z,4.55
2022-12-01T20:23:45.989Z,4.52
2022-12-01T20:26:13.595Z,4.48
2022-12-01T20:28:41.529Z,4.53
2022-12-01T20:31:11.752Z,4.52
2022-12-01T20:33:38.990Z,4.51
2022-12-01T20:36:06.506Z,4.51
2022-12-01T20:38:33.651Z,4.42
2022-12-01T20:41:00.137Z,4.45
2022-12-01T20:43:26.667Z,4.36
2022-12-01T20:45:53.232Z,4.25
2022-12-01T20:48:19.841Z,4.15
2022-12-01T20:50:46.590Z,4.19
2022-12-01T20:53:13.714Z,4.16
2022-12-01T20:55:40.438Z,4.01
2022-12-01T20:58:08.872Z,4.01
2022-12-01T21:00:38.510Z,3.98
2022-12-01T21:03:05.939Z,3.85
2022-12-01T21:05:33.214Z,3.90
2022-12-01T21:08:01.428Z,3.78
2022-12-01T21:10:28.193Z,3.73
2022-12-01T21:13:18.702Z,3.78
2022-12-01T21:16:01.825Z,3.74
2022-12-01T21:18:40.844Z,3.81
2022-12-01T21:21:27.580Z,3.81
2022-12-01T21:24:17.185Z,3.80
2022-12-01T21:26:57.724Z,3.80
2022-12-01T21:29:26.729Z,3.74
2022-12-01T21:32:00.336Z,3.80
2022-12-01T21:34:28.713Z,3.73
2022-12-01T21:36:59.059Z,3.82
2022-12-01T21:39:26.584Z,3.86
2022-12-01T21:41:56.889Z,3.80
2022-12-01T21:44:36.039Z,3.78
2022-12-01T21:47:21.849Z,3.63
2022-12-01T21:49:52.269Z,3.80
2022-12-01T21:52:27.181Z,3.78
2022-12-01T21:54:54.623Z,3.81
2022-12-01T21:57:43.099Z,3.82
2022-12-01T22:00:30.315Z,3.79
2022-12-01T22:03:08.149Z,3.68
2022-12-01T22:05:52.320Z,3.62
2022-12-01T22:08:34.299Z,3.63
2022-12-01T22:11:18.755Z,3.68
2022-12-01T22:13:49.831Z,3.60
2022-12-01T22:16:26.007Z,3.68
2022-12-01T22:18:55.126Z,3.61
2022-12-01T22:21:21.649Z,3.63
2022-12-01T22:23:59.652Z,3.59
2022-12-01T22:26:26.463Z,3.61
2022-12-01T22:28:56.937Z,3.55
2022-12-01T22:31:25.897Z,3.63
2022-12-01T22:34:01.495Z,3.62
2022-12-01T22:36:33.326Z,3.64
2022-12-01T22:39:00.182Z,3.62
2022-12-01T22:41:28.825Z,3.66
2022-12-01T22:43:56.724Z,3.65
2022-12-01T22:46:31.114Z,3.67
2022-12-01T22:49:19.394Z,3.62
2022-12-01T22:51:50.869Z,3.56
2022-12-01T22:54:17.724Z,3.54
2022-12-01T22:56:47.534Z,3.52
2022-12-01T22:59:27.748Z,3.47
2022-12-01T23:02:00.033Z,3.41
2022-12-01T23:04:31.193Z,3.33
2022-12-01T23:06:59.239Z,3.41
2022-12-01T23:09:36.057Z,3.44
2022-12-01T23:12:11.503Z,3.38
2022-12-01T23:15:00.623Z,3.42
2022-12-01T23:17:32.886Z,3.42
2022-12-01T23:20:11.684Z,3.35
2022-12-01T23:22:38.770Z,3.33
2022-12-01T23:25:17.377Z,3.37
2022-12-01T23:27:46.673Z,3.39
2022-12-01T23:30:14.980Z,3.30
2022-12-01T23:32:41.805Z,3.25
2022-12-01T23:35:15.013Z,3.33
2022-12-01T23:37:43.666Z,3.33
2022-12-01T23:40:33.203Z,3.28
2022-12-01T23:43:19.166Z,3.30
2022-12-01T23:45:46.716Z,3.26
2022-12-01T23:48:21.851Z,3.23
2022-12-01T23:50:52.572Z,3.30
2022-12-01T23:53:29.125Z,3.24
2022-12-01T23:55:59.019Z,3.27
2022-12-01T23:58:25.551Z,3.28
